»·PEaware :: N489MA KBFL-KMHV

N489MA :: KBFL-KMHV

FLIGHT INFORMATION

Flight Status: Arrived
Operator: Privately registered:
United States
More flights under this callsign
Pilot: Anonymous 44441 (44441)
Aircraft: BEECH AIRCRAFT BONANZA
(BE36)
More flights by this aircraft type
Origin: KBFL Meadows
United States
Destination: KMHV Mojave
United States
More flights between these airports :: More routes between these airports
Route:
File this flight plan on PilotEdge
Remarks:
Altitude:
(Current/Filed)
7,500ft
Speed:
(Current/Filed)
155kts
Departed: 18-Nov-23 03:15 PM
Arrived: 18-Nov-23 03:41 PM
Distance/Time
Traveled:
50nm/0:26
Distance/Time
To Go:
Arrived

Flight Plot

Page will automatically refresh every two minutes.


Map Options




Map Legend


Flown Route
Filed Route
Departure Airport
Arrival Airport
Navaid (VOR, NDB)
Fix

Horizontal Profiles

Position Reports

Time Latitude Longitude Heading Altitude Ground
Speed
18-Nov-23 14:53 35.432073 -119.049744 226 485ft 0kts
18-Nov-23 14:54 35.432073 -119.049744 226 485ft 0kts
18-Nov-23 14:55 35.432073 -119.049744 226 485ft 0kts
18-Nov-23 14:56 35.432073 -119.049744 226 485ft 0kts
18-Nov-23 14:57 35.432073 -119.049744 226 485ft 0kts
18-Nov-23 14:58 35.432073 -119.049744 226 485ft 0kts
18-Nov-23 14:59 35.432073 -119.049744 226 485ft 0kts
18-Nov-23 15:00 35.432073 -119.049744 226 485ft 0kts
18-Nov-23 15:01 35.432073 -119.049744 226 485ft 0kts
18-Nov-23 15:02 35.432073 -119.049744 226 485ft 0kts
18-Nov-23 15:03 35.432073 -119.049744 226 485ft 0kts
18-Nov-23 15:04 35.432073 -119.049744 226 485ft 0kts
18-Nov-23 15:05 35.432073 -119.049744 226 485ft 0kts
18-Nov-23 15:06 35.432073 -119.049744 226 485ft 0kts
18-Nov-23 15:07 35.432073 -119.049744 226 485ft 0kts
18-Nov-23 15:08 35.432073 -119.049744 226 485ft 0kts
18-Nov-23 15:09 35.430856 -119.050321 133 480ft 7kts
18-Nov-23 15:10 35.428254 -119.047189 135 477ft 18kts
18-Nov-23 15:11 35.425415 -119.044252 269 471ft 0kts
18-Nov-23 15:12 35.425415 -119.044252 269 471ft 0kts
18-Nov-23 15:13 35.425639 -119.044703 274 471ft 0kts
18-Nov-23 15:14 35.426163 -119.046978 317 478ft 41kts
18-Nov-23 15:15 35.446839 -119.067547 0 1526ft 114kts
18-Nov-23 15:16 35.452116 -119.030436 102 2176ft 146kts
18-Nov-23 15:17 35.433363 -118.988045 125 3015ft 141kts
18-Nov-23 15:18 35.407184 -118.952080 133 3963ft 149kts
18-Nov-23 15:19 35.378643 -118.914438 131 4667ft 150kts
18-Nov-23 15:20 35.355089 -118.877167 117 5005ft 133kts
18-Nov-23 15:21 35.342249 -118.834747 110 5693ft 139kts
18-Nov-23 15:22 35.328840 -118.788649 118 6626ft 148kts
18-Nov-23 15:23 35.324171 -118.738173 87 7402ft 154kts
18-Nov-23 15:24 35.329461 -118.681153 82 7601ft 184kts
18-Nov-23 15:25 35.324669 -118.620178 130 7563ft 180kts
18-Nov-23 15:26 35.288603 -118.580256 144 7575ft 181kts
18-Nov-23 15:27 35.249567 -118.540273 145 7565ft 184kts
18-Nov-23 15:28 35.212167 -118.502018 145 7576ft 182kts
18-Nov-23 15:29 35.169273 -118.467432 154 7570ft 182kts
18-Nov-23 15:30 35.137684 -118.418066 121 7563ft 188kts
18-Nov-23 15:31 35.118183 -118.358387 111 7309ft 195kts
18-Nov-23 15:32 35.100691 -118.295267 111 6813ft 195kts
18-Nov-23 15:33 35.095843 -118.232044 77 6267ft 182kts
18-Nov-23 15:34 35.108149 -118.174386 64 5378ft 158kts
18-Nov-23 15:35 35.102154 -118.142920 224 4500ft 83kts
18-Nov-23 15:36 35.078888 -118.149995 184 3706ft 86kts
18-Nov-23 15:38 35.070845 -118.119233 149 3465ft 94kts
18-Nov-23 15:39 35.059261 -118.134790 257 2947ft 75kts
18-Nov-23 15:40 35.059209 -118.155260 272 2802ft 48kts
18-Nov-23 15:41 35.058486 -118.157678 181 2805ft 0kts
18-Nov-23 15:42 35.058343 -118.157686 182 2804ft 12kts
18-Nov-23 15:43 35.057052 -118.154666 89 2800ft 0kts
18-Nov-23 15:44 35.057052 -118.154666 89 2800ft 0kts

Navigation Log

Ident Type
Flight plan parsing failed, navigation log unavailable